Time;durP1;ratioP1;P1;durP2;ratioP2;P2;SDS_P1;SDS_P2;PMS_P1;PMS_P2;Temp;Humidity;BMP_temperature;BMP_pressure;BME280_temperature;BME280_humidity;BME280_pressure;Samples;Min_cycle;Max_cycle;Signal;HPM_P1;HPM_P2
2021/12/04 00:01:23;;;;;;;3.97;2.43;;;1.60;99.90;;;;;;5050905;28;20167;-69
2021/12/04 00:03:49;;;;;;;3.23;2.43;;;1.60;99.90;;;;;;5050449;28;20397;-69
2021/12/04 00:06:27;;;;;;;13.03;2.57;;;1.60;99.90;;;;;;5049122;28;20461;-69
2021/12/04 00:08:56;;;;;;;5.70;3.37;;;1.70;99.90;;;;;;5037623;28;20414;-68
2021/12/04 00:11:21;;;;;;;2.83;2.30;;;1.70;99.90;;;;;;5042591;28;20413;-68
2021/12/04 00:13:47;;;;;;;4.37;2.83;;;1.70;99.90;;;;;;5050178;28;20776;-69
2021/12/04 00:16:12;;;;;;;3.73;2.83;;;1.70;99.90;;;;;;5050206;28;20194;-70
2021/12/04 00:18:38;;;;;;;1.83;1.73;;;1.70;99.90;;;;;;5048466;28;20202;-68
2021/12/04 00:21:03;;;;;;;2.40;2.20;;;1.70;99.90;;;;;;5050190;28;20171;-70
2021/12/04 00:23:29;;;;;;;3.33;2.77;;;1.70;99.90;;;;;;5049966;28;20626;-68
2021/12/04 00:25:54;;;;;;;4.80;3.07;;;1.80;99.90;;;;;;5049942;28;20194;-69
2021/12/04 00:28:19;;;;;;;3.13;2.50;;;1.80;99.90;;;;;;5050572;28;20551;-71
2021/12/04 00:30:46;;;;;;;3.90;2.13;;;1.80;99.90;;;;;;5049951;28;20206;-70
2021/12/04 00:33:17;;;;;;;3.57;3.27;;;1.70;99.90;;;;;;5049664;28;20185;-69
2021/12/04 00:35:57;;;;;;;3.60;3.40;;;1.80;99.90;;;;;;5050110;28;21067;-69
2021/12/04 00:49:10;;;;;;;2.40;1.93;;;1.80;99.90;;;;;;5049968;28;20412;-69
2021/12/04 00:51:38;;;;;;;7.13;2.07;;;1.80;99.90;;;;;;5050057;28;20405;-69
2021/12/04 00:54:05;;;;;;;4.30;3.33;;;1.80;99.90;;;;;;5049089;28;20424;-67
2021/12/04 00:56:32;;;;;;;3.47;2.43;;;1.80;99.90;;;;;;5049795;28;20517;-71
2021/12/04 00:58:57;;;;;;;3.37;3.07;;;1.80;99.90;;;;;;5049780;28;20837;-69
2021/12/04 01:01:23;;;;;;;4.73;3.90;;;1.80;99.90;;;;;;5048468;28;20575;-69
2021/12/04 01:03:49;;;;;;;5.40;3.17;;;1.80;99.90;;;;;;5049489;28;20197;-70
2021/12/04 01:06:14;;;;;;;3.97;3.57;;;1.80;99.90;;;;;;5049806;28;20198;-71
2021/12/04 01:08:40;;;;;;;3.40;2.97;;;1.90;99.90;;;;;;5039638;28;20203;-69
2021/12/04 01:11:06;;;;;;;5.90;3.33;;;1.90;99.90;;;;;;5049265;28;20243;-68
2021/12/04 01:13:33;;;;;;;6.17;3.60;;;1.90;99.90;;;;;;5049644;28;20171;-69
2021/12/04 01:15:58;;;;;;;8.10;2.90;;;1.90;99.90;;;;;;5034354;28;20432;-70
2021/12/04 01:18:24;;;;;;;3.17;2.53;;;1.90;99.90;;;;;;5029505;28;20669;-69
2021/12/04 01:20:50;;;;;;;3.40;2.80;;;1.90;99.90;;;;;;5029844;28;20207;-68
2021/12/04 01:23:16;;;;;;;2.80;2.53;;;1.90;99.90;;;;;;5028253;28;20445;-70
2021/12/04 01:25:44;;;;;;;2.83;2.57;;;1.90;99.90;;;;;;5029940;28;20685;-70
2021/12/04 01:28:10;;;;;;;3.40;2.70;;;1.90;99.90;;;;;;5033282;28;20416;-70
2021/12/04 01:30:35;;;;;;;3.57;3.27;;;1.90;99.90;;;;;;5048898;28;20402;-70
2021/12/04 01:33:01;;;;;;;4.50;4.00;;;1.90;99.90;;;;;;5048392;28;20868;-72
2021/12/04 01:35:26;;;;;;;3.53;3.23;;;1.90;99.90;;;;;;5048511;28;20611;-70
2021/12/04 01:37:52;;;;;;;3.50;3.30;;;1.90;99.90;;;;;;5051452;28;20201;-68
2021/12/04 01:40:18;;;;;;;2.73;1.80;;;1.90;99.90;;;;;;5051243;28;20202;-70
2021/12/04 01:42:44;;;;;;;3.50;3.20;;;1.90;99.90;;;;;;5049440;28;20213;-70
2021/12/04 01:45:10;;;;;;;4.03;3.50;;;2.00;99.90;;;;;;5033574;28;20270;-71
2021/12/04 01:47:35;;;;;;;5.70;2.23;;;1.90;99.90;;;;;;5050428;28;20445;-72
2021/12/04 01:50:02;;;;;;;5.60;2.80;;;1.90;99.90;;;;;;5051137;28;20412;-69
2021/12/04 01:52:28;;;;;;;3.30;2.63;;;1.90;99.90;;;;;;5050686;28;20245;-72
2021/12/04 01:54:54;;;;;;;4.50;3.00;;;1.90;99.90;;;;;;5035756;28;20515;-71
2021/12/04 01:57:21;;;;;;;3.70;2.90;;;1.90;99.90;;;;;;5031131;28;20517;-69
2021/12/04 01:59:47;;;;;;;2.50;2.30;;;2.00;99.90;;;;;;5038544;28;20213;-70
2021/12/04 02:02:12;;;;;;;2.33;1.97;;;2.00;99.90;;;;;;5066176;28;20797;-70
2021/12/04 02:04:38;;;;;;;3.53;3.23;;;2.00;99.90;;;;;;5071152;28;20412;-68
2021/12/04 02:07:04;;;;;;;3.60;2.57;;;2.00;99.90;;;;;;5050778;28;20200;-69
2021/12/04 02:09:32;;;;;;;3.60;3.03;;;1.90;99.90;;;;;;5048708;28;20553;-69
2021/12/04 02:11:58;;;;;;;3.00;2.80;;;2.00;99.90;;;;;;5051083;28;20418;-67
2021/12/04 02:14:23;;;;;;;3.73;3.20;;;2.00;99.90;;;;;;5048824;28;20931;-68
2021/12/04 02:16:50;;;;;;;3.80;3.50;;;1.90;99.90;;;;;;5031017;28;20446;-70
2021/12/04 02:19:16;;;;;;;3.73;3.10;;;2.00;99.90;;;;;;5030916;28;20210;-69
2021/12/04 02:21:42;;;;;;;3.63;2.10;;;2.10;99.90;;;;;;5032339;28;20864;-69
2021/12/04 02:24:07;;;;;;;3.10;2.20;;;2.10;99.90;;;;;;5034968;28;20468;-69
2021/12/04 02:26:33;;;;;;;7.00;5.00;;;2.00;99.90;;;;;;5034812;28;20238;-70
2021/12/04 02:28:58;;;;;;;4.53;4.23;;;2.00;99.90;;;;;;5034637;28;20259;-70
2021/12/04 02:31:26;;;;;;;1.90;1.50;;;2.00;99.90;;;;;;5034858;28;20237;-73
2021/12/04 02:33:52;;;;;;;5.70;4.10;;;2.10;99.90;;;;;;5034592;28;20258;-69
2021/12/04 02:36:19;;;;;;;7.23;3.10;;;2.00;99.90;;;;;;5051505;28;20463;-69
2021/12/04 02:38:50;;;;;;;3.63;2.50;;;2.00;99.90;;;;;;5054396;28;20521;-70
2021/12/04 02:41:16;;;;;;;4.20;3.43;;;2.00;99.90;;;;;;5054467;28;20413;-69
2021/12/04 02:43:42;;;;;;;6.37;3.90;;;2.00;99.90;;;;;;5054434;28;20760;-69
2021/12/04 02:46:07;;;;;;;4.63;3.60;;;2.00;99.90;;;;;;5054511;28;20440;-70
2021/12/04 02:48:33;;;;;;;2.77;2.50;;;2.00;99.90;;;;;;5054177;28;20171;-69
2021/12/04 02:50:58;;;;;;;5.40;3.80;;;2.00;99.90;;;;;;5054334;28;20244;-69
2021/12/04 02:53:24;;;;;;;3.20;2.97;;;2.00;99.90;;;;;;5050101;28;20691;-72
2021/12/04 02:55:52;;;;;;;2.83;2.33;;;2.10;99.90;;;;;;5054324;28;20214;-71
2021/12/04 02:58:18;;;;;;;3.50;3.20;;;2.00;99.90;;;;;;5054613;28;20174;-71
2021/12/04 03:00:48;;;;;;;5.07;4.10;;;2.00;99.90;;;;;;5053880;28;20876;-72
2021/12/04 03:03:17;;;;;;;5.37;3.70;;;2.00;99.90;;;;;;5053874;28;20167;-70
2021/12/04 03:05:45;;;;;;;4.10;2.80;;;2.00;99.90;;;;;;5034924;28;20434;-70
2021/12/04 03:08:10;;;;;;;4.63;4.27;;;2.00;99.90;;;;;;5040616;28;20414;-70
2021/12/04 03:10:36;;;;;;;3.20;2.90;;;2.00;99.90;;;;;;5053805;28;20455;-70
2021/12/04 03:13:04;;;;;;;3.03;2.33;;;2.00;99.90;;;;;;5044502;28;20182;-72
2021/12/04 03:15:30;;;;;;;4.70;2.93;;;2.00;99.90;;;;;;5044407;28;20237;-70
2021/12/04 03:17:55;;;;;;;4.03;3.63;;;2.10;99.90;;;;;;5053296;28;20476;-70
2021/12/04 03:20:21;;;;;;;3.63;3.27;;;2.10;99.90;;;;;;5053307;28;20226;-70
2021/12/04 03:22:48;;;;;;;3.00;2.80;;;2.10;99.90;;;;;;5053475;28;20170;-70
2021/12/04 03:25:19;;;;;;;3.00;2.70;;;2.10;99.90;;;;;;5053444;28;20300;-70
2021/12/04 03:27:48;;;;;;;4.53;3.33;;;2.20;99.90;;;;;;5053259;28;20848;-69
2021/12/04 03:30:27;;;;;;;3.60;3.33;;;2.10;99.90;;;;;;5053439;28;20940;-69
2021/12/04 03:40:55;;;;;;;2.23;2.13;;;2.10;99.90;;;;;;5057002;28;20503;-71
2021/12/04 03:43:21;;;;;;;5.73;3.13;;;2.20;99.90;;;;;;5033289;28;20435;-69
2021/12/04 03:45:52;;;;;;;3.93;3.07;;;2.10;99.90;;;;;;5036673;28;20855;-69
2021/12/04 03:51:04;;;;;;;5.63;4.13;;;2.10;99.90;;;;;;5053008;28;20401;-69
2021/12/04 03:53:30;;;;;;;3.80;2.90;;;2.10;99.90;;;;;;5053210;28;20401;-69
2021/12/04 03:55:56;;;;;;;5.80;4.07;;;2.10;99.90;;;;;;5052911;28;20455;-70
2021/12/04 03:58:22;;;;;;;6.47;3.53;;;2.10;99.90;;;;;;5052528;28;20963;-70
2021/12/04 04:00:48;;;;;;;3.20;2.70;;;2.10;99.90;;;;;;5052971;28;20405;-70
2021/12/04 04:03:14;;;;;;;3.30;2.97;;;2.10;99.90;;;;;;5052772;28;20924;-71
2021/12/04 04:05:39;;;;;;;4.17;2.73;;;2.20;99.90;;;;;;5052612;28;20527;-69
2021/12/04 04:08:05;;;;;;;4.37;3.70;;;2.20;99.90;;;;;;5046794;28;20409;-69
2021/12/04 04:10:31;;;;;;;3.60;3.30;;;2.20;99.90;;;;;;5032818;28;20171;-70
2021/12/04 04:12:56;;;;;;;3.73;3.30;;;2.10;99.90;;;;;;5032780;28;20168;-70
2021/12/04 04:15:22;;;;;;;4.10;3.80;;;2.20;99.90;;;;;;5042100;28;20178;-70
2021/12/04 04:17:48;;;;;;;2.80;2.60;;;2.30;99.90;;;;;;5052119;28;20586;-72
2021/12/04 04:20:17;;;;;;;4.47;2.73;;;2.30;99.90;;;;;;5052473;28;20281;-71
2021/12/04 04:22:44;;;;;;;4.87;4.00;;;2.40;99.90;;;;;;5052708;28;20402;-70
2021/12/04 04:25:11;;;;;;;5.83;5.33;;;2.30;99.90;;;;;;5052660;28;20405;-71
2021/12/04 04:27:37;;;;;;;6.03;3.00;;;2.40;99.90;;;;;;5052726;28;20432;-70
2021/12/04 04:30:11;;;;;;;4.27;3.87;;;2.30;99.90;;;;;;5052381;28;20463;-70
2021/12/04 04:32:37;;;;;;;3.07;2.77;;;2.30;99.90;;;;;;5052505;28;20999;-70
2021/12/04 04:35:11;;;;;;;2.47;2.03;;;2.30;99.90;;;;;;5052032;28;20485;-71
2021/12/04 05:10:18;;;;;;;4.40;3.50;;;2.30;99.90;;;;;;5051943;28;20432;-70
2021/12/04 05:12:54;;;;;;;4.10;3.27;;;2.40;99.90;;;;;;5051607;28;20500;-68
2021/12/04 05:15:36;;;;;;;6.47;3.87;;;2.40;99.90;;;;;;5051623;28;20405;-69
2021/12/04 05:20:35;;;;;;;3.63;3.23;;;2.40;99.90;;;;;;5051789;28;20417;-70
2021/12/04 05:23:01;;;;;;;3.07;2.80;;;2.40;99.90;;;;;;5039546;28;20897;-70
2021/12/04 05:25:29;;;;;;;7.07;5.37;;;2.40;99.90;;;;;;5031565;28;20441;-70
2021/12/04 05:27:55;;;;;;;5.57;2.97;;;2.40;99.90;;;;;;5031510;28;20200;-72
2021/12/04 05:30:20;;;;;;;3.77;3.47;;;2.40;99.90;;;;;;5031406;28;20501;-69
2021/12/04 05:32:46;;;;;;;8.77;4.43;;;2.30;99.90;;;;;;5030227;28;20497;-69
2021/12/04 05:35:11;;;;;;;6.80;4.03;;;2.40;99.90;;;;;;5035922;28;20175;-69
2021/12/04 05:37:37;;;;;;;3.43;3.13;;;2.40;99.90;;;;;;5050455;28;20657;-70
2021/12/04 05:40:03;;;;;;;5.30;4.80;;;2.40;99.90;;;;;;5051327;28;20197;-70
2021/12/04 05:42:29;;;;;;;4.03;3.60;;;2.40;99.90;;;;;;5050905;28;20213;-69
2021/12/04 05:44:55;;;;;;;6.63;3.50;;;2.30;99.90;;;;;;5051072;28;20410;-71
2021/12/04 05:47:29;;;;;;;6.03;4.20;;;2.30;99.90;;;;;;5051030;28;20426;-71
2021/12/04 05:50:10;;;;;;;5.00;4.60;;;2.30;99.90;;;;;;5051129;28;20170;-70
2021/12/04 05:55:19;;;;;;;4.27;3.87;;;2.30;99.90;;;;;;5051711;28;20490;-71
2021/12/04 05:57:44;;;;;;;7.83;5.00;;;2.30;99.90;;;;;;5055594;28;20792;-71
2021/12/04 06:00:14;;;;;;;8.97;4.10;;;2.30;99.90;;;;;;5055193;28;20788;-71
2021/12/04 06:02:40;;;;;;;5.90;5.10;;;2.30;99.90;;;;;;5055418;28;20253;-70
2021/12/04 06:05:06;;;;;;;5.40;3.80;;;2.20;99.90;;;;;;5055435;28;20489;-70
2021/12/04 06:07:31;;;;;;;4.60;4.20;;;2.30;99.90;;;;;;5055127;28;20183;-70
2021/12/04 06:09:57;;;;;;;3.50;3.20;;;2.30;99.90;;;;;;5054965;28;20656;-71
2021/12/04 06:12:22;;;;;;;5.03;4.60;;;2.30;99.90;;;;;;5054950;28;20175;-69
2021/12/04 06:14:49;;;;;;;6.57;4.60;;;2.30;99.90;;;;;;5055163;28;20460;-69
2021/12/04 06:17:15;;;;;;;3.60;3.33;;;2.20;99.90;;;;;;5054934;28;20202;-70
2021/12/04 06:22:37;;;;;;;4.87;4.43;;;2.10;99.90;;;;;;5055112;28;20401;-70
2021/12/04 06:25:14;;;;;;;6.33;4.80;;;2.10;99.90;;;;;;5054904;28;20429;-69
2021/12/04 06:27:41;;;;;;;4.60;3.17;;;2.10;99.90;;;;;;5054777;28;20425;-69
2021/12/04 06:30:09;;;;;;;5.20;3.83;;;2.10;99.90;;;;;;5054487;28;20428;-69
2021/12/04 06:32:36;;;;;;;4.70;3.40;;;2.20;99.90;;;;;;5053050;28;20421;-69
2021/12/04 06:35:07;;;;;;;4.10;1.70;;;2.20;99.90;;;;;;5054377;28;20405;-69
2021/12/04 06:37:33;;;;;;;3.47;3.27;;;2.20;99.90;;;;;;5054546;28;20453;-69
2021/12/04 06:39:59;;;;;;;2.80;2.60;;;2.20;99.90;;;;;;5053958;28;20457;-70
2021/12/04 06:42:24;;;;;;;2.73;2.53;;;2.10;99.90;;;;;;5054301;28;20602;-70
2021/12/04 06:44:53;;;;;;;6.03;4.10;;;2.10;99.90;;;;;;5053984;28;20170;-70
2021/12/04 06:47:19;;;;;;;4.50;3.10;;;2.10;99.90;;;;;;5053920;28;20723;-69
2021/12/04 06:49:45;;;;;;;4.33;2.93;;;2.20;99.90;;;;;;5052453;28;20455;-70
2021/12/04 06:52:16;;;;;;;2.83;2.63;;;2.20;99.90;;;;;;5053871;28;20203;-70
2021/12/04 06:54:49;;;;;;;5.60;4.73;;;2.10;99.90;;;;;;5054148;28;20409;-72
2021/12/04 06:57:16;;;;;;;4.23;3.27;;;2.10;99.90;;;;;;5054085;28;20518;-70
2021/12/04 06:59:42;;;;;;;3.47;2.80;;;2.10;99.90;;;;;;5053992;28;20448;-69
2021/12/04 07:02:08;;;;;;;3.90;3.53;;;2.20;99.90;;;;;;5053966;28;20817;-70
2021/12/04 07:04:37;;;;;;;2.90;2.70;;;2.20;99.90;;;;;;5053755;28;20406;-69
2021/12/04 07:07:05;;;;;;;3.47;3.17;;;2.20;99.90;;;;;;5053224;28;20187;-70
2021/12/04 07:09:30;;;;;;;3.73;2.43;;;2.10;99.90;;;;;;5053869;28;20405;-69
2021/12/04 07:11:56;;;;;;;6.27;4.17;;;2.10;99.90;;;;;;5053637;28;20432;-69
2021/12/04 07:14:21;;;;;;;7.83;4.30;;;2.20;99.90;;;;;;5053551;28;20173;-69
2021/12/04 07:16:47;;;;;;;4.53;4.20;;;2.20;99.90;;;;;;5053446;28;20233;-70
2021/12/04 07:19:13;;;;;;;5.03;3.77;;;2.20;99.90;;;;;;5053566;28;20275;-70
2021/12/04 07:21:39;;;;;;;5.50;3.00;;;2.20;99.90;;;;;;5053237;28;20166;-70
2021/12/04 07:24:04;;;;;;;3.63;3.30;;;2.30;99.90;;;;;;5052125;28;20178;-69
2021/12/04 07:26:30;;;;;;;3.33;3.03;;;2.30;99.90;;;;;;5053223;28;20433;-69
2021/12/04 07:28:55;;;;;;;5.80;4.10;;;2.30;99.90;;;;;;5053794;28;20171;-71
2021/12/04 07:31:21;;;;;;;3.50;3.27;;;2.30;99.90;;;;;;5053681;28;20661;-70
2021/12/04 07:33:46;;;;;;;3.37;2.97;;;2.30;99.90;;;;;;5053249;28;20197;-71
2021/12/04 07:36:12;;;;;;;6.10;4.90;;;2.30;99.90;;;;;;5053113;28;20689;-71
2021/12/04 07:38:37;;;;;;;3.70;2.30;;;2.30;99.90;;;;;;5053189;28;20213;-71
2021/12/04 07:41:03;;;;;;;6.37;5.37;;;2.40;99.90;;;;;;5053011;28;20164;-69
2021/12/04 07:43:29;;;;;;;4.20;3.90;;;2.30;99.90;;;;;;5053381;28;20239;-69
2021/12/04 07:45:55;;;;;;;5.63;2.90;;;2.30;99.90;;;;;;5052673;28;20433;-70
2021/12/04 07:48:20;;;;;;;3.23;2.93;;;2.40;99.90;;;;;;5052857;28;20512;-69
2021/12/04 07:50:46;;;;;;;2.90;2.57;;;2.40;99.90;;;;;;5052803;28;20225;-70
2021/12/04 07:53:11;;;;;;;2.77;2.67;;;2.50;99.90;;;;;;5053047;28;20167;-69
2021/12/04 07:55:37;;;;;;;3.83;2.77;;;2.40;99.90;;;;;;5052761;28;20174;-69
2021/12/04 07:58:03;;;;;;;4.00;3.00;;;2.40;99.90;;;;;;5053087;28;20513;-69
2021/12/04 08:00:28;;;;;;;7.70;3.10;;;2.30;99.90;;;;;;5052659;28;20604;-71
2021/12/04 08:02:54;;;;;;;5.80;4.00;;;2.50;99.90;;;;;;5052869;28;20236;-72
2021/12/04 08:05:20;;;;;;;6.07;3.20;;;2.40;99.90;;;;;;5052748;28;20472;-69
2021/12/04 08:07:46;;;;;;;3.73;3.43;;;2.50;99.90;;;;;;5049627;28;20231;-69
2021/12/04 08:10:16;;;;;;;6.43;3.33;;;2.70;99.90;;;;;;5042997;28;20185;-69
2021/12/04 08:12:42;;;;;;;3.67;2.70;;;2.70;99.90;;;;;;5051194;28;20213;-69
2021/12/04 08:15:10;;;;;;;5.33;4.93;;;2.80;99.90;;;;;;5041129;28;20458;-68
2021/12/04 08:17:37;;;;;;;5.97;3.10;;;3.10;99.90;;;;;;5032485;28;20446;-69
2021/12/04 08:20:04;;;;;;;9.63;3.27;;;2.90;99.90;;;;;;5033984;28;20511;-68
2021/12/04 08:22:29;;;;;;;3.23;2.93;;;3.30;99.90;;;;;;5032516;28;20429;-68
2021/12/04 08:24:55;;;;;;;4.30;3.10;;;3.20;99.90;;;;;;5032286;28;20407;-69
2021/12/04 08:27:21;;;;;;;3.90;3.60;;;3.00;99.90;;;;;;5032415;28;20274;-69
2021/12/04 08:29:46;;;;;;;3.20;2.90;;;3.40;99.90;;;;;;5032135;28;20175;-68
2021/12/04 08:32:12;;;;;;;3.93;3.33;;;3.10;99.90;;;;;;5032443;28;20176;-69
2021/12/04 08:34:38;;;;;;;18.47;5.53;;;3.60;99.90;;;;;;5032122;28;20178;-70
2021/12/04 08:37:04;;;;;;;7.17;4.20;;;3.40;99.90;;;;;;5032176;28;20572;-70
2021/12/04 08:39:30;;;;;;;9.70;5.07;;;3.40;99.90;;;;;;5031981;28;20231;-68
2021/12/04 08:41:56;;;;;;;5.60;3.30;;;3.30;99.90;;;;;;5032172;28;20943;-69
2021/12/04 08:44:22;;;;;;;7.80;4.77;;;3.20;99.90;;;;;;5031929;28;20206;-70
2021/12/04 08:46:48;;;;;;;3.30;3.10;;;3.10;99.90;;;;;;5032106;28;20484;-70
2021/12/04 08:49:14;;;;;;;3.40;3.10;;;3.30;99.90;;;;;;5032298;28;20422;-70
2021/12/04 08:51:42;;;;;;;3.83;3.53;;;3.40;99.90;;;;;;5032170;28;20171;-70
2021/12/04 08:54:08;;;;;;;5.63;3.40;;;3.40;99.90;;;;;;5032279;28;20856;-69
2021/12/04 08:56:34;;;;;;;7.50;3.73;;;3.40;99.90;;;;;;5032039;28;20442;-72
2021/12/04 08:59:00;;;;;;;4.50;2.63;;;3.80;99.90;;;;;;5032075;28;20465;-69
2021/12/04 09:01:31;;;;;;;4.00;3.00;;;3.40;99.90;;;;;;5032155;28;20619;-70
2021/12/04 09:04:00;;;;;;;3.37;3.07;;;3.70;99.90;;;;;;5032026;28;20406;-70
2021/12/04 09:06:26;;;;;;;6.50;3.80;;;3.90;99.90;;;;;;5031758;28;20438;-71
2021/12/04 09:08:52;;;;;;;3.10;2.60;;;3.90;99.90;;;;;;5031852;28;20422;-71
2021/12/04 09:11:29;;;;;;;5.50;3.63;;;4.00;99.90;;;;;;5031862;28;20505;-71
2021/12/04 09:13:55;;;;;;;5.70;3.10;;;3.60;99.90;;;;;;5031901;28;20446;-70
2021/12/04 09:16:21;;;;;;;8.77;3.93;;;3.30;99.90;;;;;;5032060;28;20469;-70
2021/12/04 09:18:47;;;;;;;10.90;3.83;;;3.60;99.90;;;;;;5031690;28;20454;-69
2021/12/04 09:21:13;;;;;;;3.50;3.20;;;3.70;99.90;;;;;;5031599;28;20417;-70
2021/12/04 09:23:47;;;;;;;3.83;3.27;;;4.00;99.90;;;;;;5031788;28;20207;-70
2021/12/04 09:26:27;;;;;;;4.30;2.60;;;3.70;99.90;;;;;;5031746;28;21171;-70
2021/12/04 09:29:02;;;;;;;3.70;3.27;;;3.40;99.90;;;;;;5031964;28;20500;-69
2021/12/04 09:31:39;;;;;;;5.80;3.87;;;3.30;99.90;;;;;;5031418;28;20406;-69
2021/12/04 09:34:21;;;;;;;7.13;2.80;;;3.30;99.90;;;;;;5031644;28;20417;-72
2021/12/04 10:11:16;;;;;;;4.37;2.97;;;3.00;99.90;;;;;;5031424;28;20418;-70
2021/12/04 10:18:18;;;;;;;5.93;4.47;;;2.80;99.90;;;;;;5030965;28;20460;-69
2021/12/04 10:21:07;;;;;;;4.53;3.27;;;2.90;99.90;;;;;;5031214;28;20817;-69
2021/12/04 10:23:56;;;;;;;4.33;2.53;;;2.90;99.90;;;;;;5033487;28;20394;-70
2021/12/04 10:34:34;;;;;;;4.27;3.90;;;3.10;99.90;;;;;;5030888;28;20461;-70
2021/12/04 10:37:07;;;;;;;4.03;3.27;;;3.10;99.90;;;;;;5030687;28;20512;-68
2021/12/04 10:39:33;;;;;;;6.00;3.57;;;3.10;99.90;;;;;;5031285;28;20556;-70
2021/12/04 10:42:00;;;;;;;10.23;4.93;;;3.10;99.90;;;;;;5031037;28;20489;-68
2021/12/04 10:44:26;;;;;;;5.70;4.23;;;2.90;99.90;;;;;;5034475;28;20182;-69
2021/12/04 10:47:12;;;;;;;4.07;3.67;;;2.90;99.90;;;;;;5034314;28;20438;-68
2021/12/04 10:55:27;;;;;;;7.07;5.10;;;2.90;99.90;;;;;;5031828;28;20817;-69
2021/12/04 11:00:52;;;;;;;4.50;3.50;;;2.90;99.90;;;;;;5034385;28;20449;-69
2021/12/04 11:03:27;;;;;;;5.00;3.70;;;3.00;99.90;;;;;;5034707;28;20398;-69
2021/12/04 11:24:01;;;;;;;4.70;3.30;;;3.20;99.90;;;;;;5036014;28;20418;-68
2021/12/04 11:34:55;;;;;;;4.43;3.60;;;3.00;99.90;;;;;;5033939;28;20753;-69
2021/12/04 11:40:25;;;;;;;4.80;4.00;;;3.30;99.90;;;;;;5033544;28;20827;-67
2021/12/04 11:42:54;;;;;;;4.90;3.37;;;3.40;99.90;;;;;;5032541;28;20425;-68
2021/12/04 11:45:29;;;;;;;2.50;2.30;;;3.40;99.90;;;;;;5033537;28;20766;-70
2021/12/04 11:48:02;;;;;;;5.73;4.27;;;3.40;99.90;;;;;;5033638;28;20434;-70
2021/12/04 11:50:38;;;;;;;4.57;3.53;;;3.40;99.90;;;;;;5045500;28;20410;-68
2021/12/04 11:53:08;;;;;;;8.03;4.20;;;3.30;99.90;;;;;;5053229;28;20423;-69
2021/12/04 11:55:37;;;;;;;5.13;4.37;;;3.30;99.90;;;;;;5053208;28;20398;-68
2021/12/04 11:58:03;;;;;;;6.63;4.10;;;3.40;99.90;;;;;;5052650;28;20429;-69
2021/12/04 12:00:33;;;;;;;4.37;3.97;;;3.40;99.90;;;;;;5052924;28;20564;-68
2021/12/04 12:03:20;;;;;;;4.50;4.10;;;3.30;99.90;;;;;;5053304;28;20171;-68
2021/12/04 12:05:58;;;;;;;4.23;3.30;;;3.40;99.90;;;;;;5053003;28;20514;-69
2021/12/04 12:08:41;;;;;;;5.17;4.20;;;3.40;99.90;;;;;;5053059;28;20420;-68
2021/12/04 12:11:24;;;;;;;4.87;4.17;;;3.40;99.90;;;;;;5053037;28;20433;-68
2021/12/04 12:13:56;;;;;;;5.80;5.40;;;3.30;99.90;;;;;;5053060;28;20481;-68
2021/12/04 12:16:25;;;;;;;5.20;4.47;;;3.40;99.90;;;;;;5052756;28;20456;-68
2021/12/04 12:18:56;;;;;;;7.73;5.57;;;3.50;99.90;;;;;;5052690;28;20460;-69
2021/12/04 12:21:28;;;;;;;6.50;4.60;;;3.50;99.90;;;;;;5052836;28;20405;-69
2021/12/04 12:24:12;;;;;;;7.70;4.90;;;3.40;99.90;;;;;;5052741;28;20908;-69
2021/12/04 12:33:21;;;;;;;4.07;3.63;;;3.30;99.90;;;;;;5052523;28;20987;-68
2021/12/04 12:36:08;;;;;;;3.97;3.20;;;3.30;99.90;;;;;;5029863;28;20458;-69
2021/12/04 12:38:36;;;;;;;4.27;3.07;;;3.20;99.90;;;;;;5030226;28;20402;-68
2021/12/04 12:41:29;;;;;;;5.80;3.50;;;3.30;99.90;;;;;;5044948;28;20416;-68
2021/12/04 12:44:18;;;;;;;9.07;4.97;;;3.30;99.90;;;;;;5052099;28;20397;-68
2021/12/04 12:47:00;;;;;;;6.20;3.43;;;3.20;99.90;;;;;;5052178;28;20423;-68
2021/12/04 12:49:43;;;;;;;5.90;4.07;;;3.20;99.90;;;;;;5052344;28;20899;-70
2021/12/04 12:52:10;;;;;;;4.93;3.70;;;3.20;99.90;;;;;;5052375;28;21149;-73
2021/12/04 12:54:49;;;;;;;4.03;3.63;;;3.20;99.90;;;;;;5052284;28;20504;-72
2021/12/04 12:57:36;;;;;;;4.77;3.10;;;3.10;99.90;;;;;;5050337;28;20529;-67
2021/12/04 13:14:12;;;;;;;3.97;3.60;;;3.10;99.90;;;;;;5032239;28;20406;-68
2021/12/04 13:16:41;;;;;;;5.00;3.63;;;3.20;99.90;;;;;;5031752;28;20480;-69
2021/12/04 13:19:11;;;;;;;4.00;3.50;;;3.10;99.90;;;;;;5031893;28;20454;-69
2021/12/04 13:21:39;;;;;;;7.30;3.90;;;3.20;99.90;;;;;;5031625;28;20394;-68
2021/12/04 13:24:06;;;;;;;5.10;3.97;;;3.20;99.90;;;;;;5031845;28;20394;-68
2021/12/04 13:26:35;;;;;;;4.07;3.67;;;3.10;99.90;;;;;;5031709;28;20418;-69
2021/12/04 13:29:06;;;;;;;5.27;3.97;;;3.10;99.90;;;;;;5031631;28;20465;-68
2021/12/04 13:31:34;;;;;;;5.03;3.57;;;3.20;99.90;;;;;;5031763;28;20407;-68
2021/12/04 13:33:59;;;;;;;4.70;3.23;;;3.20;99.90;;;;;;5036239;28;21137;-68
2021/12/04 13:36:29;;;;;;;2.67;2.47;;;3.20;99.90;;;;;;5051206;28;20529;-68
2021/12/04 13:39:10;;;;;;;3.50;3.20;;;3.10;99.90;;;;;;5051570;28;20203;-69
2021/12/04 13:41:38;;;;;;;4.33;3.93;;;3.10;99.90;;;;;;5051640;28;20398;-69
2021/12/04 13:44:06;;;;;;;3.80;3.50;;;3.10;99.90;;;;;;5051434;28;20401;-69
2021/12/04 13:46:48;;;;;;;2.93;2.63;;;3.00;99.90;;;;;;5035612;28;20434;-70
2021/12/04 13:49:19;;;;;;;3.43;2.80;;;3.00;99.90;;;;;;5031992;28;20514;-68
2021/12/04 13:51:53;;;;;;;6.53;3.73;;;3.00;99.90;;;;;;5031464;28;20777;-68
2021/12/04 13:54:18;;;;;;;3.47;3.10;;;3.00;99.90;;;;;;5031581;28;20398;-71
2021/12/04 13:56:44;;;;;;;3.97;3.57;;;3.10;99.90;;;;;;5036698;28;20440;-68
2021/12/04 13:59:11;;;;;;;4.80;3.90;;;3.00;99.90;;;;;;5050899;28;20198;-68
2021/12/04 14:01:42;;;;;;;4.00;3.67;;;3.00;99.90;;;;;;5051447;28;20164;-68
2021/12/04 14:04:16;;;;;;;4.77;4.30;;;3.00;99.90;;;;;;5051613;28;20405;-69
2021/12/04 14:06:54;;;;;;;4.80;4.00;;;3.10;99.90;;;;;;5051200;28;20417;-69
2021/12/04 14:09:21;;;;;;;6.33;4.37;;;3.10;99.90;;;;;;5051354;28;20409;-68
2021/12/04 14:11:47;;;;;;;6.80;3.53;;;3.10;99.90;;;;;;5051436;28;20405;-71
2021/12/04 14:14:15;;;;;;;11.73;7.53;;;3.10;99.90;;;;;;5051661;28;20398;-69
2021/12/04 14:16:42;;;;;;;5.37;3.40;;;3.30;99.90;;;;;;5051291;28;20197;-70
2021/12/04 14:19:13;;;;;;;6.03;4.90;;;3.40;99.90;;;;;;5054715;28;20463;-69
2021/12/04 14:21:38;;;;;;;4.60;3.33;;;3.50;99.90;;;;;;5055011;28;20484;-68
2021/12/04 14:24:04;;;;;;;7.43;4.20;;;3.30;99.90;;;;;;5055043;28;20437;-68
2021/12/04 14:26:30;;;;;;;6.10;5.50;;;3.20;99.90;;;;;;5054878;28;20640;-74
2021/12/04 14:28:55;;;;;;;6.57;5.90;;;3.10;99.90;;;;;;5055578;28;20162;-80
2021/12/04 14:31:22;;;;;;;6.00;3.83;;;3.10;99.90;;;;;;5053530;28;20257;-69
2021/12/04 14:33:47;;;;;;;5.83;5.10;;;3.10;99.90;;;;;;5051911;28;20546;-71
2021/12/04 14:36:18;;;;;;;12.50;5.93;;;3.10;99.90;;;;;;5034722;28;20434;-69
2021/12/04 14:38:45;;;;;;;10.00;5.37;;;3.10;99.90;;;;;;5034679;28;20199;-71
2021/12/04 14:41:11;;;;;;;10.10;3.70;;;3.00;99.90;;;;;;5034685;28;20399;-69
2021/12/04 14:43:39;;;;;;;5.70;4.77;;;3.00;99.90;;;;;;5033549;28;20943;-69
2021/12/04 14:46:13;;;;;;;6.63;5.00;;;2.90;99.90;;;;;;5034661;28;20841;-70
2021/12/04 14:48:41;;;;;;;6.07;4.67;;;2.90;99.90;;;;;;5034898;28;20414;-69
2021/12/04 14:51:19;;;;;;;7.47;4.97;;;2.80;99.90;;;;;;5049421;28;20471;-68
2021/12/04 14:53:55;;;;;;;6.00;4.80;;;2.80;99.90;;;;;;5054866;28;20774;-68
2021/12/04 14:56:23;;;;;;;8.50;5.97;;;2.80;99.90;;;;;;5054509;28;20424;-69
2021/12/04 14:58:49;;;;;;;8.63;4.90;;;2.80;99.90;;;;;;5054322;28;20449;-68
2021/12/04 15:01:17;;;;;;;5.40;4.43;;;2.80;99.90;;;;;;5054270;28;20783;-68
2021/12/04 15:03:50;;;;;;;12.90;7.00;;;2.80;99.90;;;;;;5049838;28;21521;-69
2021/12/04 15:06:17;;;;;;;6.60;6.00;;;2.80;99.90;;;;;;5034458;28;20443;-69
2021/12/04 15:08:46;;;;;;;8.80;5.87;;;2.80;99.90;;;;;;5034217;28;20463;-69
2021/12/04 15:11:19;;;;;;;9.83;5.20;;;2.70;99.90;;;;;;5034663;28;20410;-70
2021/12/04 15:13:53;;;;;;;9.30;6.47;;;2.70;99.90;;;;;;5052621;28;20958;-68
2021/12/04 15:16:28;;;;;;;7.50;5.30;;;2.70;99.90;;;;;;5054107;28;20425;-71
2021/12/04 15:19:05;;;;;;;9.37;4.17;;;2.70;99.90;;;;;;5053872;28;20552;-70
2021/12/04 15:21:40;;;;;;;7.13;6.33;;;2.70;99.90;;;;;;5054066;28;20401;-69
2021/12/04 15:24:08;;;;;;;14.03;5.90;;;2.70;99.90;;;;;;5053897;28;20397;-69
2021/12/04 15:26:40;;;;;;;6.60;4.57;;;2.70;99.90;;;;;;5053585;28;20421;-69
2021/12/04 15:29:05;;;;;;;8.40;6.53;;;2.70;99.90;;;;;;5053581;28;20838;-70
2021/12/04 15:31:39;;;;;;;6.13;4.30;;;2.60;99.90;;;;;;5053933;28;20445;-69
2021/12/04 15:34:04;;;;;;;8.63;5.10;;;2.60;99.90;;;;;;5053910;28;20179;-69
2021/12/04 15:36:38;;;;;;;7.77;5.93;;;2.50;99.90;;;;;;5053583;28;20912;-69
2021/12/04 15:39:11;;;;;;;3.97;3.63;;;2.50;99.90;;;;;;5053229;28;20194;-70
2021/12/04 15:41:52;;;;;;;5.73;5.17;;;2.50;99.90;;;;;;5053625;28;20402;-70
2021/12/04 15:44:46;;;;;;;6.97;5.80;;;2.50;99.90;;;;;;5053608;28;20416;-69
2021/12/04 15:47:24;;;;;;;5.27;4.43;;;2.50;99.90;;;;;;5045389;28;20430;-70
2021/12/04 15:53:05;;;;;;;3.97;3.67;;;2.50;99.90;;;;;;5053580;28;20402;-70
2021/12/04 15:55:43;;;;;;;10.03;5.67;;;2.50;99.90;;;;;;5053303;28;20405;-71
2021/12/04 15:58:18;;;;;;;9.30;3.70;;;2.60;99.90;;;;;;5053073;28;20405;-69